sensor_id;sensor_type;location;lat;lon;timestamp;temperature;humidity
2929;DHT22;1474;51.460;7.150;2023-04-24T00:00:27;11.40;99.90
2929;DHT22;1474;51.460;7.150;2023-04-24T00:02:56;11.40;99.90
2929;DHT22;1474;51.460;7.150;2023-04-24T00:05:23;11.40;99.90
2929;DHT22;1474;51.460;7.150;2023-04-24T00:07:50;11.40;99.90
2929;DHT22;1474;51.460;7.150;2023-04-24T00:10:18;11.50;99.90
2929;DHT22;1474;51.460;7.150;2023-04-24T00:12:44;11.40;99.90
2929;DHT22;1474;51.460;7.150;2023-04-24T00:15:11;11.40;99.90
2929;DHT22;1474;51.460;7.150;2023-04-24T00:17:37;11.30;99.90
2929;DHT22;1474;51.460;7.150;2023-04-24T00:20:04;11.30;99.90
2929;DHT22;1474;51.460;7.150;2023-04-24T00:22:33;11.20;99.90
2929;DHT22;1474;51.460;7.150;2023-04-24T00:24:58;11.10;99.90
2929;DHT22;1474;51.460;7.150;2023-04-24T00:27:24;11.10;99.90
2929;DHT22;1474;51.460;7.150;2023-04-24T00:29:51;11.10;99.90
2929;DHT22;1474;51.460;7.150;2023-04-24T00:32:18;11.00;99.90
2929;DHT22;1474;51.460;7.150;2023-04-24T00:34:46;11.00;99.90
2929;DHT22;1474;51.460;7.150;2023-04-24T00:37:12;11.00;99.90
2929;DHT22;1474;51.460;7.150;2023-04-24T00:39:39;10.90;99.90
2929;DHT22;1474;51.460;7.150;2023-04-24T00:42:07;10.90;99.90
2929;DHT22;1474;51.460;7.150;2023-04-24T00:44:35;10.90;99.90
2929;DHT22;1474;51.460;7.150;2023-04-24T00:47:05;10.90;99.90
2929;DHT22;1474;51.460;7.150;2023-04-24T00:49:31;10.90;99.90
2929;DHT22;1474;51.460;7.150;2023-04-24T00:51:57;10.80;99.90
2929;DHT22;1474;51.460;7.150;2023-04-24T00:54:25;10.80;99.90
2929;DHT22;1474;51.460;7.150;2023-04-24T00:56:51;10.80;99.90
2929;DHT22;1474;51.460;7.150;2023-04-24T00:59:23;10.70;99.90
2929;DHT22;1474;51.460;7.150;2023-04-24T01:01:49;10.70;99.90
2929;DHT22;1474;51.460;7.150;2023-04-24T01:04:16;10.60;99.90
2929;DHT22;1474;51.460;7.150;2023-04-24T01:06:44;10.60;99.90
2929;DHT22;1474;51.460;7.150;2023-04-24T01:09:11;10.60;99.90
2929;DHT22;1474;51.460;7.150;2023-04-24T01:11:37;10.50;99.90
2929;DHT22;1474;51.460;7.150;2023-04-24T01:14:04;10.50;99.90
2929;DHT22;1474;51.460;7.150;2023-04-24T01:16:29;10.40;99.90
2929;DHT22;1474;51.460;7.150;2023-04-24T01:18:55;10.40;99.90
2929;DHT22;1474;51.460;7.150;2023-04-24T01:21:21;10.30;99.90
2929;DHT22;1474;51.460;7.150;2023-04-24T01:23:49;10.30;99.90
2929;DHT22;1474;51.460;7.150;2023-04-24T01:26:18;10.30;99.90
2929;DHT22;1474;51.460;7.150;2023-04-24T01:28:46;10.30;99.90
2929;DHT22;1474;51.460;7.150;2023-04-24T01:31:11;10.30;99.90
2929;DHT22;1474;51.460;7.150;2023-04-24T01:33:37;10.30;99.90
2929;DHT22;1474;51.460;7.150;2023-04-24T01:36:03;10.30;99.90
2929;DHT22;1474;51.460;7.150;2023-04-24T01:38:29;10.40;99.90
2929;DHT22;1474;51.460;7.150;2023-04-24T01:40:54;10.40;99.90
2929;DHT22;1474;51.460;7.150;2023-04-24T01:43:20;10.40;99.90
2929;DHT22;1474;51.460;7.150;2023-04-24T01:45:46;10.40;99.90
2929;DHT22;1474;51.460;7.150;2023-04-24T01:48:12;10.30;99.90
2929;DHT22;1474;51.460;7.150;2023-04-24T01:50:38;10.30;99.90
2929;DHT22;1474;51.460;7.150;2023-04-24T01:53:04;10.30;99.90
2929;DHT22;1474;51.460;7.150;2023-04-24T01:55:30;10.20;99.90
2929;DHT22;1474;51.460;7.150;2023-04-24T01:57:56;10.10;99.90
2929;DHT22;1474;51.460;7.150;2023-04-24T02:00:23;10.10;99.90
2929;DHT22;1474;51.460;7.150;2023-04-24T02:02:50;10.10;99.90
2929;DHT22;1474;51.460;7.150;2023-04-24T02:05:15;10.00;99.90
2929;DHT22;1474;51.460;7.150;2023-04-24T02:07:41;10.00;99.90
2929;DHT22;1474;51.460;7.150;2023-04-24T02:10:07;9.90;99.90
2929;DHT22;1474;51.460;7.150;2023-04-24T02:12:32;9.90;99.90
2929;DHT22;1474;51.460;7.150;2023-04-24T02:14:58;9.80;99.90
2929;DHT22;1474;51.460;7.150;2023-04-24T02:17:24;9.70;99.90
2929;DHT22;1474;51.460;7.150;2023-04-24T02:19:50;9.60;99.90
2929;DHT22;1474;51.460;7.150;2023-04-24T02:22:15;9.50;99.90
2929;DHT22;1474;51.460;7.150;2023-04-24T02:24:41;9.50;99.90
2929;DHT22;1474;51.460;7.150;2023-04-24T02:27:07;9.40;99.90
2929;DHT22;1474;51.460;7.150;2023-04-24T02:29:32;9.40;99.90
2929;DHT22;1474;51.460;7.150;2023-04-24T02:31:58;9.40;99.90
2929;DHT22;1474;51.460;7.150;2023-04-24T02:34:24;9.40;99.90
2929;DHT22;1474;51.460;7.150;2023-04-24T02:36:49;9.40;99.90
2929;DHT22;1474;51.460;7.150;2023-04-24T02:39:15;9.40;99.90
2929;DHT22;1474;51.460;7.150;2023-04-24T02:41:44;9.40;99.90
2929;DHT22;1474;51.460;7.150;2023-04-24T02:44:10;9.40;99.90
2929;DHT22;1474;51.460;7.150;2023-04-24T02:46:35;9.30;99.90
2929;DHT22;1474;51.460;7.150;2023-04-24T02:49:01;9.30;99.90
2929;DHT22;1474;51.460;7.150;2023-04-24T02:51:27;9.30;99.90
2929;DHT22;1474;51.460;7.150;2023-04-24T02:53:52;9.30;99.90
2929;DHT22;1474;51.460;7.150;2023-04-24T02:56:18;9.20;99.90
2929;DHT22;1474;51.460;7.150;2023-04-24T02:58:44;9.20;99.90
2929;DHT22;1474;51.460;7.150;2023-04-24T03:01:10;9.30;99.90
2929;DHT22;1474;51.460;7.150;2023-04-24T03:03:36;9.30;99.90
2929;DHT22;1474;51.460;7.150;2023-04-24T03:06:02;9.30;99.90
2929;DHT22;1474;51.460;7.150;2023-04-24T03:08:28;9.40;99.90
2929;DHT22;1474;51.460;7.150;2023-04-24T03:10:54;9.40;99.90
2929;DHT22;1474;51.460;7.150;2023-04-24T03:13:19;9.30;99.90
2929;DHT22;1474;51.460;7.150;2023-04-24T03:15:45;9.40;99.90
2929;DHT22;1474;51.460;7.150;2023-04-24T03:18:12;9.40;99.90
2929;DHT22;1474;51.460;7.150;2023-04-24T03:20:37;9.40;99.90
2929;DHT22;1474;51.460;7.150;2023-04-24T03:23:03;9.40;99.90
2929;DHT22;1474;51.460;7.150;2023-04-24T03:25:29;9.40;99.90
2929;DHT22;1474;51.460;7.150;2023-04-24T03:27:55;9.50;99.90
2929;DHT22;1474;51.460;7.150;2023-04-24T03:30:21;9.40;99.90
2929;DHT22;1474;51.460;7.150;2023-04-24T03:32:46;9.50;99.90
2929;DHT22;1474;51.460;7.150;2023-04-24T03:35:12;9.40;99.90
2929;DHT22;1474;51.460;7.150;2023-04-24T03:37:37;9.50;99.90
2929;DHT22;1474;51.460;7.150;2023-04-24T03:40:03;9.50;99.90
2929;DHT22;1474;51.460;7.150;2023-04-24T03:42:31;9.50;99.90
2929;DHT22;1474;51.460;7.150;2023-04-24T03:44:56;9.50;99.90
2929;DHT22;1474;51.460;7.150;2023-04-24T03:47:22;9.50;99.90
2929;DHT22;1474;51.460;7.150;2023-04-24T03:49:48;9.50;99.90
2929;DHT22;1474;51.460;7.150;2023-04-24T03:52:13;9.50;99.90
2929;DHT22;1474;51.460;7.150;2023-04-24T03:54:39;9.50;99.90
2929;DHT22;1474;51.460;7.150;2023-04-24T03:57:04;9.60;99.90
2929;DHT22;1474;51.460;7.150;2023-04-24T03:59:30;9.60;99.90
2929;DHT22;1474;51.460;7.150;2023-04-24T04:01:56;9.60;99.90
2929;DHT22;1474;51.460;7.150;2023-04-24T04:04:22;9.50;99.90
2929;DHT22;1474;51.460;7.150;2023-04-24T04:06:47;9.60;99.90
2929;DHT22;1474;51.460;7.150;2023-04-24T04:09:14;9.50;99.90
2929;DHT22;1474;51.460;7.150;2023-04-24T04:11:40;9.50;99.90
2929;DHT22;1474;51.460;7.150;2023-04-24T04:14:05;9.60;99.90
2929;DHT22;1474;51.460;7.150;2023-04-24T04:16:31;9.50;99.90
2929;DHT22;1474;51.460;7.150;2023-04-24T04:18:57;9.50;99.90
2929;DHT22;1474;51.460;7.150;2023-04-24T04:21:22;9.40;99.90
2929;DHT22;1474;51.460;7.150;2023-04-24T04:23:48;9.50;99.90
2929;DHT22;1474;51.460;7.150;2023-04-24T04:26:14;9.50;99.90
2929;DHT22;1474;51.460;7.150;2023-04-24T04:28:39;9.50;99.90
2929;DHT22;1474;51.460;7.150;2023-04-24T04:31:06;9.50;99.90
2929;DHT22;1474;51.460;7.150;2023-04-24T04:33:33;9.50;99.90
2929;DHT22;1474;51.460;7.150;2023-04-24T04:35:59;9.50;99.90
2929;DHT22;1474;51.460;7.150;2023-04-24T04:38:25;9.50;99.90
2929;DHT22;1474;51.460;7.150;2023-04-24T04:40:55;9.50;99.90
2929;DHT22;1474;51.460;7.150;2023-04-24T04:43:24;9.40;99.90
2929;DHT22;1474;51.460;7.150;2023-04-24T04:45:50;9.50;99.90
2929;DHT22;1474;51.460;7.150;2023-04-24T04:48:19;9.50;99.90
2929;DHT22;1474;51.460;7.150;2023-04-24T04:50:45;9.50;99.90
2929;DHT22;1474;51.460;7.150;2023-04-24T04:53:11;9.50;99.90
2929;DHT22;1474;51.460;7.150;2023-04-24T04:55:37;9.50;99.90
2929;DHT22;1474;51.460;7.150;2023-04-24T04:58:03;9.60;99.90
2929;DHT22;1474;51.460;7.150;2023-04-24T05:00:28;9.50;99.90
2929;DHT22;1474;51.460;7.150;2023-04-24T05:02:59;9.60;99.90
2929;DHT22;1474;51.460;7.150;2023-04-24T05:05:24;9.50;99.90
2929;DHT22;1474;51.460;7.150;2023-04-24T05:07:50;9.50;99.90
2929;DHT22;1474;51.460;7.150;2023-04-24T05:10:16;9.50;99.90
2929;DHT22;1474;51.460;7.150;2023-04-24T05:12:41;9.50;99.90
2929;DHT22;1474;51.460;7.150;2023-04-24T05:15:07;9.40;99.90
2929;DHT22;1474;51.460;7.150;2023-04-24T05:17:33;9.40;99.90
2929;DHT22;1474;51.460;7.150;2023-04-24T05:19:58;9.40;99.90
2929;DHT22;1474;51.460;7.150;2023-04-24T05:22:24;9.40;99.90
2929;DHT22;1474;51.460;7.150;2023-04-24T05:24:50;9.50;99.90
2929;DHT22;1474;51.460;7.150;2023-04-24T05:27:15;9.50;99.90
2929;DHT22;1474;51.460;7.150;2023-04-24T05:29:41;9.50;99.90
2929;DHT22;1474;51.460;7.150;2023-04-24T05:32:06;9.50;99.90
2929;DHT22;1474;51.460;7.150;2023-04-24T05:34:32;9.40;99.90
2929;DHT22;1474;51.460;7.150;2023-04-24T05:36:58;9.50;99.90
2929;DHT22;1474;51.460;7.150;2023-04-24T05:39:23;9.40;99.90
2929;DHT22;1474;51.460;7.150;2023-04-24T05:41:50;9.40;99.90
2929;DHT22;1474;51.460;7.150;2023-04-24T05:44:16;9.30;99.90
2929;DHT22;1474;51.460;7.150;2023-04-24T05:46:41;9.20;99.90
2929;DHT22;1474;51.460;7.150;2023-04-24T05:49:07;9.10;99.90
2929;DHT22;1474;51.460;7.150;2023-04-24T05:51:33;9.00;99.90
2929;DHT22;1474;51.460;7.150;2023-04-24T05:53:58;8.90;99.90
2929;DHT22;1474;51.460;7.150;2023-04-24T05:56:24;8.90;99.90
2929;DHT22;1474;51.460;7.150;2023-04-24T05:58:50;8.90;99.90
2929;DHT22;1474;51.460;7.150;2023-04-24T06:01:16;8.90;99.90
2929;DHT22;1474;51.460;7.150;2023-04-24T06:03:42;8.80;99.90
2929;DHT22;1474;51.460;7.150;2023-04-24T06:06:08;8.80;99.90
2929;DHT22;1474;51.460;7.150;2023-04-24T06:08:34;8.80;99.90
2929;DHT22;1474;51.460;7.150;2023-04-24T06:11:00;8.90;99.90
2929;DHT22;1474;51.460;7.150;2023-04-24T06:13:26;8.90;99.90
2929;DHT22;1474;51.460;7.150;2023-04-24T06:15:52;8.90;99.90
2929;DHT22;1474;51.460;7.150;2023-04-24T06:18:18;9.00;99.90
2929;DHT22;1474;51.460;7.150;2023-04-24T06:20:45;8.90;99.90
2929;DHT22;1474;51.460;7.150;2023-04-24T06:23:11;8.80;99.90
2929;DHT22;1474;51.460;7.150;2023-04-24T06:25:37;8.80;99.90
2929;DHT22;1474;51.460;7.150;2023-04-24T06:28:03;8.80;99.90
2929;DHT22;1474;51.460;7.150;2023-04-24T06:30:29;8.80;99.90
2929;DHT22;1474;51.460;7.150;2023-04-24T06:32:54;8.80;99.90
2929;DHT22;1474;51.460;7.150;2023-04-24T06:35:20;8.90;99.90
2929;DHT22;1474;51.460;7.150;2023-04-24T06:37:46;8.90;99.90
2929;DHT22;1474;51.460;7.150;2023-04-24T06:40:11;9.00;99.90
2929;DHT22;1474;51.460;7.150;2023-04-24T06:42:37;9.00;99.90
2929;DHT22;1474;51.460;7.150;2023-04-24T06:45:03;9.00;99.90
2929;DHT22;1474;51.460;7.150;2023-04-24T06:47:29;8.90;99.90
2929;DHT22;1474;51.460;7.150;2023-04-24T06:49:54;9.00;99.90
2929;DHT22;1474;51.460;7.150;2023-04-24T06:52:20;9.00;99.90
2929;DHT22;1474;51.460;7.150;2023-04-24T06:54:46;9.10;99.90
2929;DHT22;1474;51.460;7.150;2023-04-24T06:57:11;9.10;99.90
2929;DHT22;1474;51.460;7.150;2023-04-24T06:59:37;9.20;99.90
2929;DHT22;1474;51.460;7.150;2023-04-24T07:02:03;9.20;99.90
2929;DHT22;1474;51.460;7.150;2023-04-24T07:04:29;9.20;99.90
2929;DHT22;1474;51.460;7.150;2023-04-24T07:06:55;9.20;99.90
2929;DHT22;1474;51.460;7.150;2023-04-24T07:09:24;9.30;99.90
2929;DHT22;1474;51.460;7.150;2023-04-24T07:11:51;9.30;99.90
2929;DHT22;1474;51.460;7.150;2023-04-24T07:14:17;9.30;99.90
2929;DHT22;1474;51.460;7.150;2023-04-24T07:16:43;9.30;99.90
2929;DHT22;1474;51.460;7.150;2023-04-24T07:19:09;9.20;99.90
2929;DHT22;1474;51.460;7.150;2023-04-24T07:21:35;9.10;99.90
2929;DHT22;1474;51.460;7.150;2023-04-24T07:24:01;9.10;99.90
2929;DHT22;1474;51.460;7.150;2023-04-24T07:26:29;9.10;99.90
2929;DHT22;1474;51.460;7.150;2023-04-24T07:28:55;9.10;99.90
2929;DHT22;1474;51.460;7.150;2023-04-24T07:31:21;9.10;99.90
2929;DHT22;1474;51.460;7.150;2023-04-24T07:33:47;9.10;99.90
2929;DHT22;1474;51.460;7.150;2023-04-24T07:36:12;9.10;99.90
2929;DHT22;1474;51.460;7.150;2023-04-24T07:38:42;9.10;99.90
2929;DHT22;1474;51.460;7.150;2023-04-24T07:41:08;9.10;99.90
2929;DHT22;1474;51.460;7.150;2023-04-24T07:43:34;9.10;99.90
2929;DHT22;1474;51.460;7.150;2023-04-24T07:46:00;9.10;99.90
2929;DHT22;1474;51.460;7.150;2023-04-24T07:48:25;9.10;99.90
2929;DHT22;1474;51.460;7.150;2023-04-24T07:50:52;9.20;99.90
2929;DHT22;1474;51.460;7.150;2023-04-24T07:53:18;9.20;99.90
2929;DHT22;1474;51.460;7.150;2023-04-24T07:55:43;9.30;99.90
2929;DHT22;1474;51.460;7.150;2023-04-24T07:58:09;9.30;99.90
2929;DHT22;1474;51.460;7.150;2023-04-24T08:00:34;9.30;99.90
2929;DHT22;1474;51.460;7.150;2023-04-24T08:03:00;9.40;99.90
2929;DHT22;1474;51.460;7.150;2023-04-24T08:05:26;9.50;99.90
2929;DHT22;1474;51.460;7.150;2023-04-24T08:07:54;9.40;99.90
2929;DHT22;1474;51.460;7.150;2023-04-24T08:10:21;9.50;99.90
2929;DHT22;1474;51.460;7.150;2023-04-24T08:12:46;9.40;99.90
2929;DHT22;1474;51.460;7.150;2023-04-24T08:15:12;9.50;99.90
2929;DHT22;1474;51.460;7.150;2023-04-24T08:17:38;9.40;99.90
2929;DHT22;1474;51.460;7.150;2023-04-24T08:20:04;9.40;99.90
2929;DHT22;1474;51.460;7.150;2023-04-24T08:22:30;9.30;99.90
2929;DHT22;1474;51.460;7.150;2023-04-24T08:25:00;9.20;99.90
2929;DHT22;1474;51.460;7.150;2023-04-24T08:27:26;9.00;99.90
2929;DHT22;1474;51.460;7.150;2023-04-24T08:29:56;8.90;99.90
2929;DHT22;1474;51.460;7.150;2023-04-24T08:32:22;8.90;99.90
2929;DHT22;1474;51.460;7.150;2023-04-24T08:34:47;8.90;99.90
2929;DHT22;1474;51.460;7.150;2023-04-24T08:37:13;8.90;99.90
2929;DHT22;1474;51.460;7.150;2023-04-24T08:39:39;8.90;99.90
2929;DHT22;1474;51.460;7.150;2023-04-24T08:42:05;8.90;99.90
2929;DHT22;1474;51.460;7.150;2023-04-24T08:44:34;8.70;99.90
2929;DHT22;1474;51.460;7.150;2023-04-24T08:47:01;8.70;99.90
2929;DHT22;1474;51.460;7.150;2023-04-24T08:49:28;8.70;99.90
2929;DHT22;1474;51.460;7.150;2023-04-24T08:51:54;8.70;99.90
2929;DHT22;1474;51.460;7.150;2023-04-24T08:54:21;8.70;99.90
2929;DHT22;1474;51.460;7.150;2023-04-24T08:56:48;8.80;99.90
2929;DHT22;1474;51.460;7.150;2023-04-24T08:59:14;8.80;99.90
2929;DHT22;1474;51.460;7.150;2023-04-24T09:01:40;8.80;99.90
2929;DHT22;1474;51.460;7.150;2023-04-24T09:04:08;8.80;99.90
2929;DHT22;1474;51.460;7.150;2023-04-24T09:06:40;8.80;99.90
2929;DHT22;1474;51.460;7.150;2023-04-24T09:09:06;8.80;99.90
2929;DHT22;1474;51.460;7.150;2023-04-24T09:11:32;8.80;99.90
2929;DHT22;1474;51.460;7.150;2023-04-24T09:13:58;8.90;99.90
2929;DHT22;1474;51.460;7.150;2023-04-24T09:16:25;9.00;99.90
2929;DHT22;1474;51.460;7.150;2023-04-24T09:18:51;9.10;99.90
2929;DHT22;1474;51.460;7.150;2023-04-24T09:21:17;9.20;99.90
2929;DHT22;1474;51.460;7.150;2023-04-24T09:23:43;9.20;99.90
2929;DHT22;1474;51.460;7.150;2023-04-24T09:26:09;9.30;99.90
2929;DHT22;1474;51.460;7.150;2023-04-24T09:28:37;9.30;99.90
2929;DHT22;1474;51.460;7.150;2023-04-24T09:31:14;9.30;99.90
2929;DHT22;1474;51.460;7.150;2023-04-24T09:33:59;9.30;99.90
2929;DHT22;1474;51.460;7.150;2023-04-24T09:36:30;9.30;99.90
2929;DHT22;1474;51.460;7.150;2023-04-24T09:39:02;9.20;99.90
2929;DHT22;1474;51.460;7.150;2023-04-24T09:41:28;9.20;99.90
2929;DHT22;1474;51.460;7.150;2023-04-24T09:43:57;9.20;99.90
2929;DHT22;1474;51.460;7.150;2023-04-24T09:46:30;9.10;99.90
2929;DHT22;1474;51.460;7.150;2023-04-24T09:49:08;9.10;99.90
2929;DHT22;1474;51.460;7.150;2023-04-24T09:51:36;9.00;99.90
2929;DHT22;1474;51.460;7.150;2023-04-24T09:54:11;8.90;99.90
2929;DHT22;1474;51.460;7.150;2023-04-24T09:56:42;8.90;99.90
2929;DHT22;1474;51.460;7.150;2023-04-24T09:59:09;8.80;99.90
2929;DHT22;1474;51.460;7.150;2023-04-24T10:01:34;8.70;99.90
2929;DHT22;1474;51.460;7.150;2023-04-24T10:04:00;8.60;99.90
2929;DHT22;1474;51.460;7.150;2023-04-24T10:06:34;8.60;99.90
2929;DHT22;1474;51.460;7.150;2023-04-24T10:09:00;8.60;99.90
2929;DHT22;1474;51.460;7.150;2023-04-24T10:11:29;8.60;99.90
2929;DHT22;1474;51.460;7.150;2023-04-24T10:13:56;8.60;99.90
2929;DHT22;1474;51.460;7.150;2023-04-24T10:16:23;8.50;99.90
2929;DHT22;1474;51.460;7.150;2023-04-24T10:18:49;8.50;99.90
2929;DHT22;1474;51.460;7.150;2023-04-24T10:21:17;8.50;99.90
2929;DHT22;1474;51.460;7.150;2023-04-24T10:23:43;8.60;99.90
2929;DHT22;1474;51.460;7.150;2023-04-24T10:26:16;8.50;99.90
2929;DHT22;1474;51.460;7.150;2023-04-24T10:28:44;8.60;99.90
2929;DHT22;1474;51.460;7.150;2023-04-24T10:31:10;8.70;99.90
2929;DHT22;1474;51.460;7.150;2023-04-24T10:33:38;8.70;99.90
2929;DHT22;1474;51.460;7.150;2023-04-24T10:36:07;8.80;99.90
2929;DHT22;1474;51.460;7.150;2023-04-24T10:38:35;8.80;99.90
2929;DHT22;1474;51.460;7.150;2023-04-24T10:41:11;8.80;99.90
2929;DHT22;1474;51.460;7.150;2023-04-24T10:43:42;8.80;99.90
2929;DHT22;1474;51.460;7.150;2023-04-24T10:46:08;8.80;99.90
2929;DHT22;1474;51.460;7.150;2023-04-24T10:48:35;8.80;99.90
2929;DHT22;1474;51.460;7.150;2023-04-24T10:51:12;8.80;99.90
2929;DHT22;1474;51.460;7.150;2023-04-24T10:53:39;8.90;99.90
2929;DHT22;1474;51.460;7.150;2023-04-24T10:56:07;8.90;99.90
2929;DHT22;1474;51.460;7.150;2023-04-24T10:58:41;8.90;99.90
2929;DHT22;1474;51.460;7.150;2023-04-24T11:01:26;8.90;99.90
2929;DHT22;1474;51.460;7.150;2023-04-24T11:03:56;9.00;99.90
2929;DHT22;1474;51.460;7.150;2023-04-24T11:06:33;9.00;99.90
2929;DHT22;1474;51.460;7.150;2023-04-24T11:09:07;9.10;99.90
2929;DHT22;1474;51.460;7.150;2023-04-24T11:11:35;9.20;99.90
2929;DHT22;1474;51.460;7.150;2023-04-24T11:16:35;9.20;99.90
2929;DHT22;1474;51.460;7.150;2023-04-24T11:21:45;9.30;99.90
2929;DHT22;1474;51.460;7.150;2023-04-24T11:27:19;9.40;99.90
2929;DHT22;1474;51.460;7.150;2023-04-24T11:29:51;9.40;99.90
2929;DHT22;1474;51.460;7.150;2023-04-24T11:32:29;9.40;99.90
2929;DHT22;1474;51.460;7.150;2023-04-24T11:34:57;9.50;99.90
2929;DHT22;1474;51.460;7.150;2023-04-24T11:37:26;9.70;99.90
2929;DHT22;1474;51.460;7.150;2023-04-24T11:39:57;9.90;99.90
2929;DHT22;1474;51.460;7.150;2023-04-24T11:42:24;10.10;99.90
2929;DHT22;1474;51.460;7.150;2023-04-24T11:44:52;10.10;99.90
2929;DHT22;1474;51.460;7.150;2023-04-24T11:47:18;10.10;99.90
2929;DHT22;1474;51.460;7.150;2023-04-24T11:49:44;10.10;99.90
2929;DHT22;1474;51.460;7.150;2023-04-24T11:52:09;10.00;99.90
2929;DHT22;1474;51.460;7.150;2023-04-24T11:54:36;9.80;99.90
2929;DHT22;1474;51.460;7.150;2023-04-24T11:57:05;9.70;99.90
2929;DHT22;1474;51.460;7.150;2023-04-24T11:59:41;9.50;99.90
2929;DHT22;1474;51.460;7.150;2023-04-24T12:02:06;9.50;99.90
2929;DHT22;1474;51.460;7.150;2023-04-24T12:04:41;9.40;99.90
2929;DHT22;1474;51.460;7.150;2023-04-24T12:07:07;9.30;99.90
2929;DHT22;1474;51.460;7.150;2023-04-24T12:09:44;9.20;99.90
2929;DHT22;1474;51.460;7.150;2023-04-24T12:12:12;9.20;99.90
2929;DHT22;1474;51.460;7.150;2023-04-24T12:14:53;9.40;99.90
2929;DHT22;1474;51.460;7.150;2023-04-24T12:17:23;9.60;99.90
2929;DHT22;1474;51.460;7.150;2023-04-24T12:19:49;9.90;99.90
2929;DHT22;1474;51.460;7.150;2023-04-24T12:22:16;10.10;99.90
2929;DHT22;1474;51.460;7.150;2023-04-24T12:25:01;10.40;99.90
2929;DHT22;1474;51.460;7.150;2023-04-24T12:27:33;10.50;99.90
2929;DHT22;1474;51.460;7.150;2023-04-24T12:30:01;10.60;99.90
2929;DHT22;1474;51.460;7.150;2023-04-24T12:32:27;10.60;99.90
2929;DHT22;1474;51.460;7.150;2023-04-24T12:34:54;10.50;99.90
2929;DHT22;1474;51.460;7.150;2023-04-24T12:37:22;10.60;99.90
2929;DHT22;1474;51.460;7.150;2023-04-24T12:42:29;10.40;99.90
2929;DHT22;1474;51.460;7.150;2023-04-24T12:45:06;10.30;99.90
2929;DHT22;1474;51.460;7.150;2023-04-24T12:47:33;10.20;99.90
2929;DHT22;1474;51.460;7.150;2023-04-24T12:49:59;10.20;99.90
2929;DHT22;1474;51.460;7.150;2023-04-24T12:52:26;10.10;99.90
2929;DHT22;1474;51.460;7.150;2023-04-24T12:54:56;10.00;99.90
2929;DHT22;1474;51.460;7.150;2023-04-24T12:57:23;9.90;99.90
2929;DHT22;1474;51.460;7.150;2023-04-24T12:59:49;9.80;99.90
2929;DHT22;1474;51.460;7.150;2023-04-24T13:02:15;9.90;99.90
2929;DHT22;1474;51.460;7.150;2023-04-24T13:04:46;10.00;99.90
2929;DHT22;1474;51.460;7.150;2023-04-24T13:07:15;10.00;99.90
2929;DHT22;1474;51.460;7.150;2023-04-24T13:09:42;10.10;99.90
2929;DHT22;1474;51.460;7.150;2023-04-24T13:12:08;10.20;99.90
2929;DHT22;1474;51.460;7.150;2023-04-24T13:14:35;10.30;99.90
2929;DHT22;1474;51.460;7.150;2023-04-24T13:17:00;10.50;99.90
2929;DHT22;1474;51.460;7.150;2023-04-24T13:19:26;10.60;99.90
2929;DHT22;1474;51.460;7.150;2023-04-24T13:21:54;10.80;99.90
2929;DHT22;1474;51.460;7.150;2023-04-24T13:24:21;10.90;99.90
2929;DHT22;1474;51.460;7.150;2023-04-24T13:26:50;11.00;99.90
2929;DHT22;1474;51.460;7.150;2023-04-24T13:29:15;11.00;99.90
2929;DHT22;1474;51.460;7.150;2023-04-24T13:31:41;10.90;99.90
2929;DHT22;1474;51.460;7.150;2023-04-24T13:34:07;10.90;99.90
2929;DHT22;1474;51.460;7.150;2023-04-24T13:36:32;10.90;99.90
2929;DHT22;1474;51.460;7.150;2023-04-24T13:38:58;10.90;99.90
2929;DHT22;1474;51.460;7.150;2023-04-24T13:41:24;10.80;99.90
2929;DHT22;1474;51.460;7.150;2023-04-24T13:43:50;10.70;99.90
2929;DHT22;1474;51.460;7.150;2023-04-24T13:46:16;10.70;99.90
2929;DHT22;1474;51.460;7.150;2023-04-24T13:48:41;10.60;99.90
2929;DHT22;1474;51.460;7.150;2023-04-24T13:51:07;10.70;99.90
2929;DHT22;1474;51.460;7.150;2023-04-24T13:53:33;10.60;99.90
2929;DHT22;1474;51.460;7.150;2023-04-24T13:56:01;10.60;99.90
2929;DHT22;1474;51.460;7.150;2023-04-24T13:58:27;10.60;99.90
2929;DHT22;1474;51.460;7.150;2023-04-24T14:00:53;10.60;99.90
2929;DHT22;1474;51.460;7.150;2023-04-24T14:03:18;10.60;99.90
2929;DHT22;1474;51.460;7.150;2023-04-24T14:05:44;10.60;99.90
2929;DHT22;1474;51.460;7.150;2023-04-24T14:08:10;10.70;99.90
2929;DHT22;1474;51.460;7.150;2023-04-24T14:10:35;10.90;99.90
2929;DHT22;1474;51.460;7.150;2023-04-24T14:13:01;11.10;99.90
2929;DHT22;1474;51.460;7.150;2023-04-24T14:15:27;11.30;99.90
2929;DHT22;1474;51.460;7.150;2023-04-24T14:17:53;11.40;99.90
2929;DHT22;1474;51.460;7.150;2023-04-24T14:20:19;11.40;99.90
2929;DHT22;1474;51.460;7.150;2023-04-24T14:22:45;11.40;99.90
2929;DHT22;1474;51.460;7.150;2023-04-24T14:25:11;11.50;99.90
2929;DHT22;1474;51.460;7.150;2023-04-24T14:27:37;11.60;99.90
2929;DHT22;1474;51.460;7.150;2023-04-24T14:30:03;11.60;99.90
2929;DHT22;1474;51.460;7.150;2023-04-24T14:32:29;11.50;99.90
2929;DHT22;1474;51.460;7.150;2023-04-24T14:34:55;11.50;99.90
2929;DHT22;1474;51.460;7.150;2023-04-24T14:37:21;11.40;99.90
2929;DHT22;1474;51.460;7.150;2023-04-24T14:39:46;11.40;99.90
2929;DHT22;1474;51.460;7.150;2023-04-24T14:42:12;11.30;99.90
2929;DHT22;1474;51.460;7.150;2023-04-24T14:44:37;11.30;99.90
2929;DHT22;1474;51.460;7.150;2023-04-24T14:47:03;11.30;99.90
2929;DHT22;1474;51.460;7.150;2023-04-24T14:49:28;11.30;99.90
2929;DHT22;1474;51.460;7.150;2023-04-24T14:51:54;11.20;99.90
2929;DHT22;1474;51.460;7.150;2023-04-24T14:54:20;11.10;99.90
2929;DHT22;1474;51.460;7.150;2023-04-24T14:56:48;11.10;99.90
2929;DHT22;1474;51.460;7.150;2023-04-24T14:59:14;11.00;99.90
2929;DHT22;1474;51.460;7.150;2023-04-24T15:01:40;10.90;99.90
2929;DHT22;1474;51.460;7.150;2023-04-24T15:04:05;10.80;99.90
2929;DHT22;1474;51.460;7.150;2023-04-24T15:06:31;10.70;99.90
2929;DHT22;1474;51.460;7.150;2023-04-24T15:08:57;10.50;99.90
2929;DHT22;1474;51.460;7.150;2023-04-24T15:11:23;10.50;99.90
2929;DHT22;1474;51.460;7.150;2023-04-24T15:13:48;10.30;99.90
2929;DHT22;1474;51.460;7.150;2023-04-24T15:16:15;10.20;99.90
2929;DHT22;1474;51.460;7.150;2023-04-24T15:18:40;10.20;99.90
2929;DHT22;1474;51.460;7.150;2023-04-24T15:21:06;10.20;99.90
2929;DHT22;1474;51.460;7.150;2023-04-24T15:23:32;10.30;99.90
2929;DHT22;1474;51.460;7.150;2023-04-24T15:25:58;10.30;99.90
2929;DHT22;1474;51.460;7.150;2023-04-24T15:28:24;10.40;99.90
2929;DHT22;1474;51.460;7.150;2023-04-24T15:30:50;10.50;99.90
2929;DHT22;1474;51.460;7.150;2023-04-24T15:33:16;10.60;99.90
2929;DHT22;1474;51.460;7.150;2023-04-24T15:35:41;10.60;99.90
2929;DHT22;1474;51.460;7.150;2023-04-24T15:38:07;10.70;99.90
2929;DHT22;1474;51.460;7.150;2023-04-24T15:40:33;11.00;99.90
2929;DHT22;1474;51.460;7.150;2023-04-24T15:42:59;11.30;99.90
2929;DHT22;1474;51.460;7.150;2023-04-24T15:45:24;11.50;99.90
2929;DHT22;1474;51.460;7.150;2023-04-24T15:47:50;11.40;99.90
2929;DHT22;1474;51.460;7.150;2023-04-24T15:50:16;11.50;99.90
2929;DHT22;1474;51.460;7.150;2023-04-24T15:52:45;11.40;99.90
2929;DHT22;1474;51.460;7.150;2023-04-24T15:55:11;11.50;99.90
2929;DHT22;1474;51.460;7.150;2023-04-24T15:57:37;11.60;99.90
2929;DHT22;1474;51.460;7.150;2023-04-24T16:00:04;11.60;99.90
2929;DHT22;1474;51.460;7.150;2023-04-24T16:02:32;11.60;99.90
2929;DHT22;1474;51.460;7.150;2023-04-24T16:04:58;11.50;99.90
2929;DHT22;1474;51.460;7.150;2023-04-24T16:07:24;11.40;99.90
2929;DHT22;1474;51.460;7.150;2023-04-24T16:09:49;11.30;99.90
2929;DHT22;1474;51.460;7.150;2023-04-24T16:12:15;11.20;99.90
2929;DHT22;1474;51.460;7.150;2023-04-24T16:14:41;11.20;99.90
2929;DHT22;1474;51.460;7.150;2023-04-24T16:17:06;11.20;99.90
2929;DHT22;1474;51.460;7.150;2023-04-24T16:19:32;11.10;99.90